Time;durP1;ratioP1;P1;durP2;ratioP2;P2;SDS_P1;SDS_P2;PMS_P1;PMS_P2;Temp;Humidity;BMP_temperature;BMP_pressure;BME280_temperature;BME280_humidity;BME280_pressure;Samples;Min_cycle;Max_cycle;Signal;HPM_P1;HPM_P2
2023/10/13 00:01:06;;;;;;;6.50;5.53;;;;;;;;;;5051891;28;20049;-89
2023/10/13 00:03:37;;;;;;;10.32;8.25;;;;;;;;;;5017548;28;20060;-89
2023/10/13 00:06:08;;;;;;;10.40;7.57;;;;;;;;;;5053558;28;20053;-89
2023/10/13 00:08:38;;;;;;;15.02;7.57;;;;;;;;;;5036108;28;20072;-88
2023/10/13 00:11:05;;;;;;;7.32;6.47;;;;;;;;;;5018986;28;20057;-88
2023/10/13 00:13:42;;;;;;;8.25;6.68;;;;;;;;;;5018647;28;20049;-89
2023/10/13 00:16:17;;;;;;;8.80;6.75;;;;;;;;;;5035439;28;20056;-88
2023/10/13 00:18:46;;;;;;;7.80;6.95;;;;;;;;;;5019513;28;20041;-88
2023/10/13 00:21:19;;;;;;;9.70;7.32;;;;;;;;;;5053143;28;20064;-89
2023/10/13 00:23:53;;;;;;;8.35;7.43;;;;;;;;;;5016216;28;20055;-88
2023/10/13 00:26:27;;;;;;;8.55;6.90;;;;;;;;;;5004466;28;20060;-89
2023/10/13 00:29:08;;;;;;;8.30;7.32;;;;;;;;;;5036281;28;20049;-88
2023/10/13 00:31:38;;;;;;;8.95;7.15;;;;;;;;;;5019153;28;20052;-89
2023/10/13 00:34:11;;;;;;;6.90;5.82;;;;;;;;;;5013461;28;20049;-89
2023/10/13 00:36:48;;;;;;;7.22;5.97;;;;;;;;;;5015626;28;20056;-89
2023/10/13 00:39:18;;;;;;;8.05;7.25;;;;;;;;;;5038501;28;20053;-89
2023/10/13 00:41:52;;;;;;;8.98;6.60;;;;;;;;;;5018393;28;20052;-88
2023/10/13 00:44:26;;;;;;;8.52;6.13;;;;;;;;;;5035406;28;20049;-89
2023/10/13 00:46:56;;;;;;;6.85;5.93;;;;;;;;;;5011935;28;20045;-88
2023/10/13 00:49:24;;;;;;;7.32;6.55;;;;;;;;;;5035195;28;20048;-89
2023/10/13 00:51:56;;;;;;;8.25;6.40;;;;;;;;;;5051950;28;20056;-89
2023/10/13 00:54:26;;;;;;;10.45;6.32;;;;;;;;;;5051265;28;20041;-89
2023/10/13 00:57:04;;;;;;;12.93;7.05;;;;;;;;;;5035063;28;20041;-89
2023/10/13 00:59:42;;;;;;;9.68;6.80;;;;;;;;;;5035671;28;20051;-88
2023/10/13 01:04:54;;;;;;;8.05;7.03;;;;;;;;;;5034383;28;20053;-89
2023/10/13 01:07:22;;;;;;;8.05;6.78;;;;;;;;;;5034919;28;20041;-89
2023/10/13 01:09:49;;;;;;;7.38;6.68;;;;;;;;;;5032953;28;20040;-89
2023/10/13 01:12:16;;;;;;;11.63;6.88;;;;;;;;;;5017025;28;20053;-88
2023/10/13 01:14:44;;;;;;;11.35;6.63;;;;;;;;;;5026596;28;20056;-88
2023/10/13 01:17:10;;;;;;;9.88;6.72;;;;;;;;;;5034570;28;20487;-88
2023/10/13 01:19:42;;;;;;;7.15;4.82;;;;;;;;;;5026689;28;20041;-88
2023/10/13 01:22:11;;;;;;;10.07;7.00;;;;;;;;;;5033466;28;20045;-88
2023/10/13 01:24:45;;;;;;;10.30;5.55;;;;;;;;;;5017766;28;20875;-88
2023/10/13 01:27:17;;;;;;;8.63;5.80;;;;;;;;;;5032918;28;20045;-89
2023/10/13 01:29:50;;;;;;;9.77;6.80;;;;;;;;;;5008512;28;20462;-89
2023/10/13 01:32:16;;;;;;;6.25;5.22;;;;;;;;;;5014303;28;20056;-89
2023/10/13 01:34:46;;;;;;;13.48;6.38;;;;;;;;;;5013208;28;20491;-89
2023/10/13 01:37:12;;;;;;;8.18;6.53;;;;;;;;;;5032215;28;20049;-89
2023/10/13 01:39:42;;;;;;;7.00;6.13;;;;;;;;;;5034591;28;20057;-89
2023/10/13 01:42:14;;;;;;;9.05;6.18;;;;;;;;;;5018110;28;20514;-89
2023/10/13 01:44:43;;;;;;;10.15;7.72;;;;;;;;;;4994095;28;20049;-89
2023/10/13 01:47:09;;;;;;;11.63;7.20;;;;;;;;;;5060581;22;20049;-83
2023/10/13 01:49:42;;;;;;;8.75;6.20;;;;;;;;;;5031958;28;20053;-84
2023/10/13 01:52:11;;;;;;;15.10;7.22;;;;;;;;;;4997724;28;20511;-83
2023/10/13 01:54:40;;;;;;;6.00;5.18;;;;;;;;;;5011419;28;20045;-83
2023/10/13 01:57:13;;;;;;;6.82;6.20;;;;;;;;;;5022318;28;20057;-83
2023/10/13 01:59:44;;;;;;;8.75;6.22;;;;;;;;;;4993146;28;20061;-83
2023/10/13 02:02:12;;;;;;;8.57;6.72;;;;;;;;;;4991332;28;20053;-83
2023/10/13 02:04:42;;;;;;;10.73;6.78;;;;;;;;;;5009849;28;20042;-83
2023/10/13 02:07:14;;;;;;;12.52;7.85;;;;;;;;;;5009775;28;20480;-83
2023/10/13 02:09:42;;;;;;;9.68;6.97;;;;;;;;;;5006482;28;20046;-84
2023/10/13 02:12:10;;;;;;;8.98;6.60;;;;;;;;;;4991033;28;20625;-84
2023/10/13 02:14:42;;;;;;;9.30;7.18;;;;;;;;;;4994508;28;20420;-84
2023/10/13 02:17:16;;;;;;;10.93;6.97;;;;;;;;;;5009481;28;20042;-83
2023/10/13 02:19:46;;;;;;;12.88;6.75;;;;;;;;;;5006819;28;20058;-84
2023/10/13 02:22:25;;;;;;;28.45;9.30;;;;;;;;;;5007343;28;20062;-84
2023/10/13 02:25:01;;;;;;;15.50;7.28;;;;;;;;;;5009709;28;20480;-85
2023/10/13 02:27:40;;;;;;;46.83;14.27;;;;;;;;;;5013239;28;20042;-84
2023/10/13 02:30:14;;;;;;;7.72;6.18;;;;;;;;;;4989790;28;20086;-84
2023/10/13 02:32:41;;;;;;;10.45;5.78;;;;;;;;;;4992220;28;20061;-83
2023/10/13 02:35:15;;;;;;;9.20;6.30;;;;;;;;;;5024787;28;20500;-83
2023/10/13 02:37:43;;;;;;;10.40;6.07;;;;;;;;;;4992937;28;20519;-84
2023/10/13 02:40:12;;;;;;;9.90;6.43;;;;;;;;;;4992699;28;20532;-84
2023/10/13 02:42:40;;;;;;;7.82;6.60;;;;;;;;;;4986298;28;20057;-84
2023/10/13 02:45:12;;;;;;;7.85;5.90;;;;;;;;;;5006090;28;20516;-84
2023/10/13 02:47:38;;;;;;;12.90;7.72;;;;;;;;;;5001999;28;20049;-84
2023/10/13 02:50:12;;;;;;;8.82;6.15;;;;;;;;;;5025196;28;20045;-84
2023/10/13 02:52:41;;;;;;;9.55;7.63;;;;;;;;;;5010039;28;20057;-84
2023/10/13 02:55:10;;;;;;;8.98;6.38;;;;;;;;;;5010006;28;20054;-84
2023/10/13 02:57:42;;;;;;;12.80;6.97;;;;;;;;;;5029559;28;20050;-84
2023/10/13 03:00:12;;;;;;;7.68;6.50;;;;;;;;;;5013020;28;20046;-84
2023/10/13 03:02:44;;;;;;;16.33;7.75;;;;;;;;;;5018997;28;20050;-84
2023/10/13 03:05:13;;;;;;;11.10;7.15;;;;;;;;;;4985639;28;20072;-84
2023/10/13 03:07:43;;;;;;;9.88;6.25;;;;;;;;;;4997537;28;20041;-84
2023/10/13 03:10:10;;;;;;;11.48;7.00;;;;;;;;;;5014860;28;20045;-84
2023/10/13 03:12:40;;;;;;;12.05;7.97;;;;;;;;;;4996920;28;20053;-84
2023/10/13 03:15:16;;;;;;;16.35;8.60;;;;;;;;;;4997072;28;20061;-84
2023/10/13 03:17:45;;;;;;;10.55;6.45;;;;;;;;;;5013940;28;20510;-84
2023/10/13 03:20:15;;;;;;;11.95;8.25;;;;;;;;;;5013462;28;20052;-84
2023/10/13 03:22:44;;;;;;;10.50;7.78;;;;;;;;;;5006516;28;20060;-84
2023/10/13 03:25:28;;;;;;;10.75;7.13;;;;;;;;;;5012203;28;20122;-84
2023/10/13 03:28:04;;;;;;;12.90;10.27;;;;;;;;;;5023877;28;20053;-84
2023/10/13 03:30:35;;;;;;;14.90;11.02;;;;;;;;;;5011731;28;20507;-84
2023/10/13 03:33:07;;;;;;;32.70;14.05;;;;;;;;;;5014167;28;20050;-84
2023/10/13 03:35:43;;;;;;;17.92;10.10;;;;;;;;;;5014500;28;20396;-84
2023/10/13 03:38:17;;;;;;;10.95;8.82;;;;;;;;;;5019379;28;20056;-85
2023/10/13 03:40:56;;;;;;;14.93;10.20;;;;;;;;;;5021046;28;20134;-84
2023/10/13 03:43:24;;;;;;;15.57;10.20;;;;;;;;;;5016204;28;20046;-84
2023/10/13 03:46:00;;;;;;;10.18;8.60;;;;;;;;;;4996250;28;20054;-84
2023/10/13 03:48:29;;;;;;;14.45;8.32;;;;;;;;;;5012479;28;20057;-85
2023/10/13 03:51:06;;;;;;;11.82;7.85;;;;;;;;;;4996245;28;20046;-84
2023/10/13 03:53:34;;;;;;;11.48;7.70;;;;;;;;;;5014032;28;20045;-85
2023/10/13 03:56:08;;;;;;;20.90;10.82;;;;;;;;;;5009735;28;20049;-85
2023/10/13 03:58:42;;;;;;;14.82;7.60;;;;;;;;;;5011521;28;20050;-85
2023/10/13 04:01:12;;;;;;;58.42;13.38;;;;;;;;;;5011752;28;20041;-85
2023/10/13 04:03:56;;;;;;;9.70;7.15;;;;;;;;;;5012326;28;20050;-85
2023/10/13 04:06:48;;;;;;;13.98;8.30;;;;;;;;;;5026807;28;20060;-84
2023/10/13 04:15:23;;;;;;;10.35;6.55;;;;;;;;;;4980278;28;20421;-85
2023/10/13 04:17:52;;;;;;;9.73;8.63;;;;;;;;;;5005585;28;20050;-85
2023/10/13 04:20:38;;;;;;;9.73;8.52;;;;;;;;;;4994205;28;20527;-85
2023/10/13 04:26:08;;;;;;;7.78;6.78;;;;;;;;;;5001352;28;20527;-84
2023/10/13 04:28:34;;;;;;;9.88;6.55;;;;;;;;;;5012317;28;20042;-84
2023/10/13 04:31:12;;;;;;;10.13;7.78;;;;;;;;;;4994066;28;20049;-84
2023/10/13 04:33:52;;;;;;;9.43;7.10;;;;;;;;;;5004807;28;20512;-84
2023/10/13 04:36:36;;;;;;;6.28;5.63;;;;;;;;;;5013606;28;20838;-84
2023/10/13 04:39:09;;;;;;;7.88;5.97;;;;;;;;;;5006467;28;20057;-84
2023/10/13 04:41:42;;;;;;;8.85;6.32;;;;;;;;;;4995255;28;20061;-84
2023/10/13 04:44:48;;;;;;;6.93;5.35;;;;;;;;;;5017840;28;20050;-84
2023/10/13 04:47:22;;;;;;;9.88;7.07;;;;;;;;;;4995839;28;20057;-84
2023/10/13 04:49:51;;;;;;;7.93;5.95;;;;;;;;;;5011710;28;20041;-84
2023/10/13 04:55:24;;;;;;;15.48;5.70;;;;;;;;;;5027669;28;20050;-83
2023/10/13 04:58:10;;;;;;;7.20;5.32;;;;;;;;;;5005851;28;20040;-84
2023/10/13 05:00:55;;;;;;;6.82;6.22;;;;;;;;;;5011660;28;20061;-84
2023/10/13 05:03:52;;;;;;;7.50;5.07;;;;;;;;;;5010481;28;20046;-84
2023/10/13 05:48:24;;;;;;;11.57;6.00;;;;;;;;;;5133233;27;20410;-85
2023/10/13 13:01:06;;;;;;;3.35;2.47;;;;;;;;;;5246885;22;20066;-83
2023/10/13 13:03:33;;;;;;;5.07;3.20;;;;;;;;;;5032246;28;20057;-83
2023/10/13 13:06:07;;;;;;;4.20;2.72;;;;;;;;;;5028930;28;20049;-83
2023/10/13 13:08:35;;;;;;;6.72;3.20;;;;;;;;;;5031716;28;20052;-83
2023/10/13 13:11:03;;;;;;;4.25;2.97;;;;;;;;;;5032070;28;20049;-83
2023/10/13 13:37:27;;;;;;;3.58;2.40;;;;;;;;;;5031926;23;20046;-83
2023/10/13 13:39:55;;;;;;;4.35;2.78;;;;;;;;;;5013183;28;20049;-83
2023/10/13 13:42:22;;;;;;;3.85;2.85;;;;;;;;;;5004911;28;20060;-83
2023/10/13 13:44:49;;;;;;;4.65;2.78;;;;;;;;;;4993204;28;20061;-83
2023/10/13 13:47:17;;;;;;;7.22;3.42;;;;;;;;;;4999049;23;20069;-91
2023/10/13 13:49:51;;;;;;;6.60;2.72;;;;;;;;;;4982085;28;20409;-91
2023/10/13 13:52:21;;;;;;;7.05;3.00;;;;;;;;;;4977784;28;20054;-91
2023/10/13 13:54:50;;;;;;;3.30;2.78;;;;;;;;;;5001472;28;20416;-91
2023/10/13 13:57:17;;;;;;;8.68;5.55;;;;;;;;;;4974137;28;20507;-91
2023/10/13 13:59:45;;;;;;;4.20;2.85;;;;;;;;;;4974136;28;20386;-91
2023/10/13 14:02:20;;;;;;;4.15;3.10;;;;;;;;;;4965009;28;20066;-90
2023/10/13 14:04:50;;;;;;;6.53;2.72;;;;;;;;;;4980249;28;20046;-91
2023/10/13 14:07:24;;;;;;;6.03;2.65;;;;;;;;;;4991705;28;20050;-91
2023/10/13 14:50:31;;;;;;;3.25;2.90;;;;;;;;;;4893319;29;20057;-87
2023/10/13 14:52:58;;;;;;;5.75;2.83;;;;;;;;;;4885626;29;20059;-87
2023/10/13 14:55:37;;;;;;;5.88;2.78;;;;;;;;;;4897046;29;20065;-87
2023/10/13 14:58:07;;;;;;;4.68;2.90;;;;;;;;;;4887520;29;20059;-87
2023/10/13 15:00:35;;;;;;;3.63;2.80;;;;;;;;;;4864521;29;20063;-87
2023/10/13 15:03:06;;;;;;;6.18;2.28;;;;;;;;;;4894203;29;20055;-87
2023/10/13 15:05:39;;;;;;;7.38;2.80;;;;;;;;;;4880625;29;20044;-87
2023/10/13 15:08:07;;;;;;;5.78;2.75;;;;;;;;;;4881199;29;20053;-87
2023/10/13 15:10:36;;;;;;;6.65;2.90;;;;;;;;;;4878011;29;20419;-87
2023/10/13 15:13:05;;;;;;;4.55;3.00;;;;;;;;;;4885356;29;20537;-85
2023/10/13 15:15:33;;;;;;;7.45;2.60;;;;;;;;;;4901252;29;20562;-85
2023/10/13 15:18:05;;;;;;;7.57;3.28;;;;;;;;;;4864056;29;20063;-85
2023/10/13 15:20:43;;;;;;;4.35;2.63;;;;;;;;;;4896999;29;20439;-85
2023/10/13 15:23:14;;;;;;;4.55;3.38;;;;;;;;;;4898449;29;20061;-85
2023/10/13 15:25:49;;;;;;;4.40;2.47;;;;;;;;;;4901069;29;20399;-85
2023/10/13 15:28:20;;;;;;;6.63;2.45;;;;;;;;;;4896706;29;20393;-85
2023/10/13 15:30:56;;;;;;;4.60;2.80;;;;;;;;;;4879360;29;20055;-85
2023/10/13 15:33:25;;;;;;;6.35;2.97;;;;;;;;;;4896868;29;20052;-85
2023/10/13 15:35:53;;;;;;;4.25;2.92;;;;;;;;;;4881488;29;20052;-85
2023/10/13 15:38:22;;;;;;;4.68;2.60;;;;;;;;;;4880191;29;20078;-85
2023/10/13 15:40:54;;;;;;;6.47;2.65;;;;;;;;;;4883106;29;20056;-85
2023/10/13 15:43:21;;;;;;;3.95;2.35;;;;;;;;;;4882260;29;20048;-85
2023/10/13 15:45:49;;;;;;;8.55;3.08;;;;;;;;;;4898188;29;20425;-85
2023/10/13 15:48:16;;;;;;;4.97;3.17;;;;;;;;;;4879666;29;20063;-86
2023/10/13 15:50:44;;;;;;;4.10;2.88;;;;;;;;;;4864896;29;20045;-85
2023/10/13 15:53:13;;;;;;;3.90;2.80;;;;;;;;;;4880664;29;20048;-85
2023/10/13 15:55:45;;;;;;;5.30;3.03;;;;;;;;;;4864253;29;20057;-85
2023/10/13 15:58:16;;;;;;;4.38;3.47;;;;;;;;;;4866063;29;20072;-85
2023/10/13 16:00:47;;;;;;;10.63;4.53;;;;;;;;;;4866445;29;20053;-85
2023/10/13 16:03:19;;;;;;;4.25;3.00;;;;;;;;;;4875972;29;20068;-85
2023/10/13 16:05:47;;;;;;;5.00;3.28;;;;;;;;;;4881361;29;20491;-85
2023/10/13 16:08:18;;;;;;;3.33;3.03;;;;;;;;;;4881913;29;20044;-85
2023/10/13 16:10:50;;;;;;;3.83;2.33;;;;;;;;;;4866353;29;20057;-85
2023/10/13 16:13:19;;;;;;;5.95;3.88;;;;;;;;;;4896961;29;20503;-85
2023/10/13 16:15:50;;;;;;;5.00;4.07;;;;;;;;;;4883502;29;20068;-84
2023/10/13 16:18:21;;;;;;;5.25;3.20;;;;;;;;;;4886069;29;20059;-85
2023/10/13 16:20:51;;;;;;;4.93;3.40;;;;;;;;;;4878490;29;20048;-85
2023/10/13 16:23:24;;;;;;;3.17;2.58;;;;;;;;;;4866186;29;20053;-88
2023/10/13 16:25:57;;;;;;;;;;;;;;;;;;4905804;29;20055;-88
2023/10/13 16:28:26;;;;;;;6.57;3.70;;;;;;;;;;4898179;29;19923;-88
2023/10/13 16:30:55;;;;;;;5.60;2.53;;;;;;;;;;4863583;29;20045;-87
2023/10/13 16:33:25;;;;;;;7.03;3.70;;;;;;;;;;4878905;29;20049;-85
2023/10/13 16:35:53;;;;;;;6.38;3.15;;;;;;;;;;4864434;29;20056;-85
2023/10/13 16:38:24;;;;;;;7.50;3.10;;;;;;;;;;4888225;29;20048;-85
2023/10/13 16:40:56;;;;;;;5.18;3.00;;;;;;;;;;4878649;29;20047;-85
2023/10/13 16:43:25;;;;;;;6.45;4.07;;;;;;;;;;4891797;29;20051;-85
2023/10/13 16:45:53;;;;;;;6.30;4.30;;;;;;;;;;4893812;29;20056;-85
2023/10/13 16:48:26;;;;;;;5.72;3.53;;;;;;;;;;4878662;29;20071;-85
2023/10/13 16:50:57;;;;;;;5.45;4.28;;;;;;;;;;4888027;29;20063;-85
2023/10/13 16:53:27;;;;;;;6.45;4.15;;;;;;;;;;4878457;29;20063;-84
2023/10/13 16:56:00;;;;;;;7.80;3.50;;;;;;;;;;4896243;29;20056;-85
2023/10/13 16:58:33;;;;;;;4.95;3.70;;;;;;;;;;4896101;29;20052;-85
2023/10/13 17:01:04;;;;;;;6.18;4.32;;;;;;;;;;4868286;29;20063;-84
2023/10/13 17:03:33;;;;;;;19.13;5.30;;;;;;;;;;4863303;29;20049;-85
2023/10/13 17:06:01;;;;;;;5.78;3.50;;;;;;;;;;4889018;29;20040;-88
2023/10/13 17:08:29;;;;;;;4.78;3.58;;;;;;;;;;4868109;29;20479;-88
2023/10/13 17:11:09;;;;;;;7.10;5.07;;;;;;;;;;4895700;29;20052;-88
2023/10/13 17:13:38;;;;;;;8.38;4.60;;;;;;;;;;4875118;29;20053;-88
2023/10/13 17:16:11;;;;;;;9.23;3.85;;;;;;;;;;4860303;29;20071;-88
2023/10/13 17:18:41;;;;;;;5.50;3.92;;;;;;;;;;4893835;29;20052;-88
2023/10/13 17:21:15;;;;;;;6.35;5.05;;;;;;;;;;4862783;29;20103;-88
2023/10/13 17:23:50;;;;;;;7.75;4.15;;;;;;;;;;4878120;29;20056;-88
2023/10/13 17:26:18;;;;;;;11.52;4.10;;;;;;;;;;4878452;29;20509;-88
2023/10/13 17:28:48;;;;;;;7.55;4.80;;;;;;;;;;4857632;29;20052;-88
2023/10/13 17:31:18;;;;;;;6.45;4.40;;;;;;;;;;4886704;29;20072;-88
2023/10/13 17:33:48;;;;;;;7.70;4.10;;;;;;;;;;4877139;29;20565;-88
2023/10/13 17:36:15;;;;;;;7.55;4.18;;;;;;;;;;4878694;29;20484;-88
2023/10/13 17:38:45;;;;;;;6.30;3.83;;;;;;;;;;4866322;29;20502;-88
2023/10/13 17:41:15;;;;;;;6.97;3.95;;;;;;;;;;4889568;29;20500;-88
2023/10/13 17:43:46;;;;;;;7.93;3.97;;;;;;;;;;4893734;29;20059;-87
2023/10/13 17:46:14;;;;;;;7.45;4.47;;;;;;;;;;4879098;29;20055;-88
2023/10/13 17:48:44;;;;;;;9.52;4.47;;;;;;;;;;4875134;29;20059;-88
2023/10/13 17:51:12;;;;;;;7.28;4.10;;;;;;;;;;4875644;29;20044;-88
2023/10/13 17:53:42;;;;;;;6.18;4.00;;;;;;;;;;4885750;29;20048;-88
2023/10/13 17:56:15;;;;;;;7.22;3.72;;;;;;;;;;4876458;29;20049;-88
2023/10/13 17:58:44;;;;;;;8.20;4.50;;;;;;;;;;4878627;29;20075;-88
2023/10/13 18:01:17;;;;;;;6.20;3.90;;;;;;;;;;4871493;29;20504;-88
2023/10/13 18:03:47;;;;;;;5.15;3.95;;;;;;;;;;4879076;29;20068;-88
2023/10/13 18:06:16;;;;;;;7.00;5.05;;;;;;;;;;4878163;29;20068;-88
2023/10/13 18:08:43;;;;;;;8.35;3.95;;;;;;;;;;4895930;29;20052;-88
2023/10/13 18:11:12;;;;;;;10.18;4.50;;;;;;;;;;4900903;29;20045;-85
2023/10/13 18:13:39;;;;;;;8.02;4.15;;;;;;;;;;4901953;29;20056;-85
2023/10/13 18:16:15;;;;;;;6.40;4.75;;;;;;;;;;4882125;29;20059;-87
2023/10/13 18:18:46;;;;;;;12.30;4.85;;;;;;;;;;4894729;29;20059;-87
2023/10/13 18:21:14;;;;;;;6.28;4.47;;;;;;;;;;4883103;29;20052;-87
2023/10/13 18:23:43;;;;;;;5.03;4.50;;;;;;;;;;4889426;29;20059;-86
2023/10/13 18:26:15;;;;;;;7.53;3.97;;;;;;;;;;4896269;29;20059;-87
2023/10/13 18:28:42;;;;;;;16.33;4.78;;;;;;;;;;4892006;29;20068;-87
2023/10/13 18:31:11;;;;;;;6.95;3.20;;;;;;;;;;4896287;29;20040;-87
2023/10/13 18:33:42;;;;;;;7.25;4.15;;;;;;;;;;4901296;29;20047;-87
2023/10/13 18:36:13;;;;;;;6.18;4.40;;;;;;;;;;4898361;29;20529;-87
2023/10/13 18:38:41;;;;;;;4.03;3.60;;;;;;;;;;4895545;29;20052;-87
2023/10/13 18:41:11;;;;;;;9.93;4.47;;;;;;;;;;4891041;29;20209;-87
2023/10/13 18:43:39;;;;;;;5.25;4.47;;;;;;;;;;4896666;29;20052;-87
2023/10/13 18:46:09;;;;;;;6.38;4.63;;;;;;;;;;4869807;29;20060;-87
2023/10/13 18:48:36;;;;;;;9.60;4.80;;;;;;;;;;4885123;29;20511;-87
2023/10/13 18:51:06;;;;;;;6.72;3.45;;;;;;;;;;4899071;29;20517;-87
2023/10/13 18:53:34;;;;;;;6.18;4.28;;;;;;;;;;4908422;29;20059;-87
2023/10/13 18:56:10;;;;;;;5.32;3.15;;;;;;;;;;4930567;29;20051;-87
2023/10/13 18:58:36;;;;;;;5.72;3.65;;;;;;;;;;4909009;29;20037;-87
2023/10/13 19:01:12;;;;;;;8.25;4.82;;;;;;;;;;4924009;29;20043;-87
2023/10/13 19:03:42;;;;;;;10.73;4.90;;;;;;;;;;4910637;29;20056;-87
2023/10/13 19:06:15;;;;;;;6.80;3.88;;;;;;;;;;4917619;29;20020;-87
2023/10/13 19:08:42;;;;;;;6.00;3.70;;;;;;;;;;4908685;29;20036;-87
2023/10/13 19:11:11;;;;;;;7.20;3.95;;;;;;;;;;4908484;29;20032;-87
2023/10/13 19:13:39;;;;;;;5.28;3.58;;;;;;;;;;4908057;29;20052;-87
2023/10/13 19:16:07;;;;;;;8.38;3.90;;;;;;;;;;4900901;29;21783;-87
2023/10/13 19:18:34;;;;;;;5.88;4.13;;;;;;;;;;4922136;29;20024;-87
2023/10/13 19:21:05;;;;;;;4.82;3.40;;;;;;;;;;4898842;29;20021;-87
2023/10/13 19:23:34;;;;;;;6.55;3.95;;;;;;;;;;4903185;29;20084;-87
2023/10/13 19:26:04;;;;;;;6.28;3.63;;;;;;;;;;4903278;29;20043;-87
2023/10/13 19:28:31;;;;;;;5.50;4.38;;;;;;;;;;4901188;29;20684;-87
2023/10/13 19:30:58;;;;;;;6.85;4.05;;;;;;;;;;4889590;29;20052;-87
2023/10/13 19:33:25;;;;;;;6.55;4.15;;;;;;;;;;4885112;29;20056;-87
2023/10/13 19:35:53;;;;;;;10.15;4.50;;;;;;;;;;4901089;29;20053;-87
2023/10/13 19:38:22;;;;;;;7.85;3.75;;;;;;;;;;4884862;29;20138;-87
2023/10/13 19:40:51;;;;;;;4.75;4.10;;;;;;;;;;4901247;29;20406;-87
2023/10/13 19:43:20;;;;;;;5.15;3.38;;;;;;;;;;4901568;29;20056;-87
2023/10/13 19:45:48;;;;;;;6.25;4.85;;;;;;;;;;4908010;29;20040;-88
2023/10/13 19:48:17;;;;;;;4.00;3.60;;;;;;;;;;4912479;23;20547;-83
2023/10/13 19:50:46;;;;;;;4.45;3.58;;;;;;;;;;4904538;29;20052;-83
2023/10/13 19:53:15;;;;;;;6.03;4.22;;;;;;;;;;4897173;29;20522;-83
2023/10/13 19:55:46;;;;;;;6.25;4.50;;;;;;;;;;4898337;29;20049;-83
2023/10/13 19:58:15;;;;;;;13.68;4.60;;;;;;;;;;4893274;29;20057;-83
2023/10/13 20:00:42;;;;;;;5.13;3.47;;;;;;;;;;4880512;29;20124;-83
2023/10/13 20:03:13;;;;;;;9.40;3.95;;;;;;;;;;4878804;29;20061;-83
2023/10/13 20:05:43;;;;;;;6.80;3.80;;;;;;;;;;4863857;29;20057;-83
2023/10/13 20:08:11;;;;;;;5.22;3.95;;;;;;;;;;4879528;29;20622;-83
2023/10/13 20:10:40;;;;;;;6.15;4.70;;;;;;;;;;4883155;29;20045;-83
2023/10/13 20:13:10;;;;;;;5.78;3.53;;;;;;;;;;4877567;29;20065;-84
2023/10/13 20:15:41;;;;;;;6.30;4.75;;;;;;;;;;4880123;29;20053;-84
2023/10/13 20:18:09;;;;;;;5.60;3.38;;;;;;;;;;4885906;29;20055;-83
2023/10/13 20:20:39;;;;;;;6.20;4.18;;;;;;;;;;4863113;29;20056;-83
2023/10/13 20:23:12;;;;;;;8.02;4.20;;;;;;;;;;4863204;29;20060;-83
2023/10/13 20:25:40;;;;;;;7.78;4.43;;;;;;;;;;4883273;29;20057;-83
2023/10/13 20:28:10;;;;;;;8.48;3.88;;;;;;;;;;4885800;29;20060;-83
2023/10/13 20:30:39;;;;;;;6.65;4.40;;;;;;;;;;4886830;29;20049;-83
2023/10/13 20:33:10;;;;;;;7.53;4.22;;;;;;;;;;4902077;29;20049;-83
2023/10/13 20:35:40;;;;;;;7.65;4.45;;;;;;;;;;4885265;29;20061;-83
2023/10/13 20:38:08;;;;;;;4.10;3.70;;;;;;;;;;4900591;29;20068;-82
2023/10/13 20:40:36;;;;;;;5.65;4.65;;;;;;;;;;4887016;29;20045;-83
2023/10/13 20:43:04;;;;;;;8.90;5.07;;;;;;;;;;4899830;29;20049;-83
2023/10/13 20:45:36;;;;;;;5.25;4.28;;;;;;;;;;4866589;29;20044;-84
2023/10/13 20:48:05;;;;;;;8.45;4.60;;;;;;;;;;4882155;29;20069;-83
2023/10/13 20:50:33;;;;;;;7.18;5.10;;;;;;;;;;4870236;29;20108;-84
2023/10/13 20:53:02;;;;;;;6.93;4.15;;;;;;;;;;4887447;29;20048;-82
2023/10/13 20:55:29;;;;;;;6.57;3.72;;;;;;;;;;4884284;29;20053;-83
2023/10/13 20:57:59;;;;;;;4.90;3.90;;;;;;;;;;4882673;29;20124;-83
2023/10/13 21:00:26;;;;;;;7.07;4.57;;;;;;;;;;4871812;29;20057;-83
2023/10/13 21:02:55;;;;;;;5.88;3.95;;;;;;;;;;4898603;29;20053;-83
2023/10/13 21:05:24;;;;;;;7.32;4.53;;;;;;;;;;4908282;29;20070;-83
2023/10/13 21:07:53;;;;;;;5.13;3.78;;;;;;;;;;4913917;29;20056;-83
2023/10/13 21:10:24;;;;;;;8.32;4.40;;;;;;;;;;4890974;29;20044;-83
2023/10/13 21:12:54;;;;;;;14.20;5.60;;;;;;;;;;4916339;29;20048;-83
2023/10/13 21:15:24;;;;;;;6.95;3.92;;;;;;;;;;4884940;29;20417;-84
2023/10/13 21:17:51;;;;;;;4.70;4.03;;;;;;;;;;4870641;29;20053;-83
2023/10/13 21:20:19;;;;;;;6.88;4.03;;;;;;;;;;4886126;29;20439;-83
2023/10/13 21:22:51;;;;;;;4.43;3.90;;;;;;;;;;4893089;29;20049;-83
2023/10/13 21:25:23;;;;;;;7.72;5.93;;;;;;;;;;4883929;29;20064;-83
2023/10/13 21:27:54;;;;;;;5.68;4.55;;;;;;;;;;4886689;29;20724;-83
2023/10/13 21:30:25;;;;;;;8.82;5.20;;;;;;;;;;4886450;29;20052;-83
2023/10/13 21:32:57;;;;;;;6.40;4.15;;;;;;;;;;4886168;29;20060;-83
2023/10/13 21:35:27;;;;;;;5.90;5.30;;;;;;;;;;4884507;29;20500;-83
2023/10/13 21:37:57;;;;;;;6.72;3.75;;;;;;;;;;4880003;29;20053;-83
2023/10/13 21:40:29;;;;;;;4.35;3.45;;;;;;;;;;4876207;29;20067;-83
2023/10/13 21:42:57;;;;;;;6.35;3.65;;;;;;;;;;4881010;29;20065;-83
2023/10/13 21:45:26;;;;;;;6.13;4.00;;;;;;;;;;4884165;29;20052;-83
2023/10/13 21:47:55;;;;;;;7.15;3.67;;;;;;;;;;4886396;29;20037;-83
2023/10/13 21:50:24;;;;;;;5.60;3.90;;;;;;;;;;4864527;29;20060;-83
2023/10/13 21:52:52;;;;;;;6.90;5.28;;;;;;;;;;4869382;29;20060;-83
2023/10/13 21:55:22;;;;;;;7.50;5.18;;;;;;;;;;4891048;29;20060;-82
2023/10/13 21:57:52;;;;;;;7.18;5.65;;;;;;;;;;4884325;29;20053;-83
2023/10/13 22:00:28;;;;;;;13.40;5.03;;;;;;;;;;4885024;29;20080;-83
2023/10/13 22:03:00;;;;;;;8.00;4.82;;;;;;;;;;4889395;29;20049;-83
2023/10/13 22:05:28;;;;;;;7.22;4.28;;;;;;;;;;4862870;29;20053;-83
2023/10/13 22:07:58;;;;;;;9.02;5.18;;;;;;;;;;4887088;29;20061;-84
2023/10/13 22:10:26;;;;;;;5.72;4.68;;;;;;;;;;4885036;29;20049;-83
2023/10/13 22:12:57;;;;;;;8.82;5.20;;;;;;;;;;4886083;29;20048;-83
2023/10/13 22:15:24;;;;;;;11.63;6.35;;;;;;;;;;4901474;29;20057;-83
2023/10/13 22:17:52;;;;;;;8.40;5.00;;;;;;;;;;4891311;29;20060;-83
2023/10/13 22:20:23;;;;;;;5.53;4.60;;;;;;;;;;4890585;29;20053;-83
2023/10/13 22:22:51;;;;;;;5.57;4.15;;;;;;;;;;4894042;29;20067;-83
2023/10/13 22:25:20;;;;;;;5.28;4.15;;;;;;;;;;4870738;29;20057;-83
2023/10/13 22:27:49;;;;;;;4.80;4.03;;;;;;;;;;4869756;29;20060;-83
2023/10/13 22:30:21;;;;;;;4.35;3.60;;;;;;;;;;4874756;29;20052;-83
2023/10/13 22:32:49;;;;;;;7.30;3.60;;;;;;;;;;4874475;29;20052;-83
2023/10/13 22:35:19;;;;;;;4.88;3.80;;;;;;;;;;4874579;29;20444;-83
2023/10/13 22:37:49;;;;;;;8.35;3.05;;;;;;;;;;4890180;29;20053;-83
2023/10/13 22:40:18;;;;;;;5.63;3.10;;;;;;;;;;4899508;29;20068;-83
2023/10/13 22:42:47;;;;;;;5.63;3.30;;;;;;;;;;4903460;29;20037;-83
2023/10/13 22:45:19;;;;;;;4.72;2.95;;;;;;;;;;4901949;29;20052;-83
2023/10/13 22:47:50;;;;;;;5.13;2.70;;;;;;;;;;4897798;29;20041;-83
2023/10/13 22:50:21;;;;;;;5.75;3.38;;;;;;;;;;4870237;29;20060;-83
2023/10/13 22:52:51;;;;;;;4.85;3.70;;;;;;;;;;4910467;29;20036;-83
2023/10/13 22:55:21;;;;;;;5.03;2.33;;;;;;;;;;4903717;29;20049;-83
2023/10/13 22:57:49;;;;;;;8.23;2.53;;;;;;;;;;4887487;29;20057;-83
2023/10/13 23:00:18;;;;;;;4.00;2.78;;;;;;;;;;4912266;29;20068;-82
2023/10/13 23:02:48;;;;;;;5.78;3.72;;;;;;;;;;4899339;29;20041;-83
2023/10/13 23:05:28;;;;;;;6.40;3.78;;;;;;;;;;4887017;29;20047;-83
2023/10/13 23:08:09;;;;;;;4.13;3.08;;;;;;;;;;4893838;29;20053;-83
2023/10/13 23:10:45;;;;;;;4.82;2.67;;;;;;;;;;4889231;29;20080;-83
2023/10/13 23:13:18;;;;;;;3.50;2.83;;;;;;;;;;4889264;29;20049;-83
2023/10/13 23:15:49;;;;;;;4.20;2.80;;;;;;;;;;4873738;29;20056;-83
2023/10/13 23:18:23;;;;;;;5.53;3.28;;;;;;;;;;4888564;29;20080;-84
2023/10/13 23:20:53;;;;;;;4.15;2.53;;;;;;;;;;4889037;29;20063;-82
2023/10/13 23:23:24;;;;;;;5.10;3.05;;;;;;;;;;4888996;29;20045;-82
2023/10/13 23:25:53;;;;;;;10.52;3.72;;;;;;;;;;4871861;29;20068;-83
2023/10/13 23:28:25;;;;;;;6.43;3.53;;;;;;;;;;4882459;29;20685;-82
2023/10/13 23:30:56;;;;;;;4.45;3.05;;;;;;;;;;4891473;29;20053;-82
2023/10/13 23:33:27;;;;;;;7.00;2.92;;;;;;;;;;4889616;29;20052;-82
2023/10/13 23:35:54;;;;;;;3.60;2.95;;;;;;;;;;4908726;29;20071;-82
2023/10/13 23:38:33;;;;;;;5.95;3.38;;;;;;;;;;4873585;29;20053;-82
2023/10/13 23:41:05;;;;;;;4.68;2.78;;;;;;;;;;4889667;29;20052;-82
2023/10/13 23:43:42;;;;;;;5.30;2.58;;;;;;;;;;4886973;29;20057;-82
2023/10/13 23:46:11;;;;;;;5.68;3.17;;;;;;;;;;4887088;29;20512;-83
2023/10/13 23:48:43;;;;;;;5.05;2.97;;;;;;;;;;4887538;29;20048;-82
2023/10/13 23:51:19;;;;;;;6.90;3.67;;;;;;;;;;4871475;29;20125;-82
2023/10/13 23:53:49;;;;;;;5.03;2.90;;;;;;;;;;4887189;29;20041;-82
2023/10/13 23:56:28;;;;;;;5.78;3.03;;;;;;;;;;4887473;29;20061;-82
2023/10/13 23:58:59;;;;;;;8.80;4.97;;;;;;;;;;4888094;29;20045;-82
